Eminence, Missouri
Current Conditions -  °F | °C
As of 4:53 PM on Sunday 21 Dec 2014 (Local Time) from KUNO Reporting Station
Overcast Overcast  
Wind Chill: 36°   Ceiling: 4900
Heat Index: 41°   Visibility: 10mi
Dew Point: 33°   Wind: 7mph
Humidity: 73%   Direction: 110°ESE
Pressure: 29.97"   Gusts: NA
Location:  37.15°N, 91.36°W
Report Text: KUNO 212253Z AUTO 11006KT 10SM OVC049 05/01 A2997 RMK AO2 SLP152 T00500006 $
Loading
Personal Weather Stations






























Interactive Weather Map New forecast layout! Learn more

10-Day Weather Forecast

Advertisements
Track Severe Weather on mobile